Time;durP1;ratioP1;P1;durP2;ratioP2;P2;SDS_P1;SDS_P2;PMS_P1;PMS_P2;Temp;Humidity;BMP_temperature;BMP_pressure;BME280_temperature;BME280_humidity;BME280_pressure;Samples;Min_cycle;Max_cycle;Signal;HPM_P1;HPM_P2
2023/03/12 00:00:45;;;;;;;9.73;2.90;;;1.00;99.90;;;;;;5115273;28;20216;-50
2023/03/12 00:03:11;;;;;;;6.07;2.60;;;1.00;99.90;;;;;;5115472;28;20183;-50
2023/03/12 00:05:37;;;;;;;6.57;2.83;;;1.00;99.90;;;;;;5115257;28;20247;-50
2023/03/12 00:08:03;;;;;;;8.37;2.90;;;1.10;99.90;;;;;;5115240;28;20182;-51
2023/03/12 00:10:29;;;;;;;7.07;3.47;;;1.20;99.90;;;;;;5115049;28;20201;-51
2023/03/12 00:12:55;;;;;;;7.83;2.90;;;1.20;99.90;;;;;;5115129;28;20178;-51
2023/03/12 00:15:21;;;;;;;9.83;3.00;;;1.20;99.90;;;;;;5114993;28;20189;-51
2023/03/12 00:17:47;;;;;;;14.00;3.80;;;1.30;99.90;;;;;;5114730;28;20690;-50
2023/03/12 00:20:13;;;;;;;7.13;3.37;;;1.30;99.90;;;;;;5114748;28;20213;-51
2023/03/12 00:22:38;;;;;;;7.20;3.20;;;1.30;99.90;;;;;;5115784;28;20188;-49
2023/03/12 00:25:09;;;;;;;9.33;3.40;;;1.30;99.90;;;;;;5114808;28;20197;-48
2023/03/12 00:27:35;;;;;;;11.80;3.83;;;1.30;99.90;;;;;;5115293;28;20173;-46
2023/03/12 00:30:02;;;;;;;4.93;3.73;;;1.40;99.90;;;;;;5115078;28;20243;-47
2023/03/12 00:32:27;;;;;;;9.17;3.90;;;1.30;99.90;;;;;;5114746;28;20174;-47
2023/03/12 00:34:54;;;;;;;6.43;3.67;;;1.40;99.90;;;;;;5114807;28;20189;-49
2023/03/12 00:37:21;;;;;;;7.83;3.70;;;1.40;99.90;;;;;;5114641;28;20209;-47
2023/03/12 00:39:47;;;;;;;7.63;3.63;;;1.40;99.90;;;;;;5114762;28;20579;-48
2023/03/12 00:42:12;;;;;;;11.87;3.70;;;1.40;99.90;;;;;;5096727;28;20173;-47
2023/03/12 00:44:38;;;;;;;9.70;3.67;;;1.30;99.90;;;;;;5115180;28;20591;-49
2023/03/12 00:47:04;;;;;;;6.77;4.07;;;1.30;99.90;;;;;;5116118;28;20265;-48
2023/03/12 00:49:29;;;;;;;5.80;3.90;;;1.40;99.90;;;;;;5115976;28;20179;-49
2023/03/12 00:51:55;;;;;;;12.43;5.07;;;1.30;99.90;;;;;;5114961;28;20205;-47
2023/03/12 00:54:21;;;;;;;6.90;4.30;;;1.40;99.90;;;;;;5114694;28;20213;-48
2023/03/12 00:56:46;;;;;;;10.50;4.30;;;1.40;99.90;;;;;;5114518;28;20188;-47
2023/03/12 00:59:13;;;;;;;7.40;4.50;;;1.40;99.90;;;;;;5115588;28;20198;-48
2023/03/12 01:01:39;;;;;;;6.90;4.57;;;1.40;99.90;;;;;;5115480;28;20205;-49
2023/03/12 01:04:05;;;;;;;7.80;4.37;;;1.30;99.90;;;;;;5115714;28;20193;-48
2023/03/12 01:06:30;;;;;;;7.73;4.50;;;1.30;99.90;;;;;;5114836;28;20182;-50
2023/03/12 01:08:56;;;;;;;6.13;4.40;;;1.40;99.90;;;;;;5114114;28;20184;-48
2023/03/12 01:11:22;;;;;;;11.07;5.30;;;1.40;99.90;;;;;;5114061;28;20204;-48
2023/03/12 01:13:48;;;;;;;9.73;5.50;;;1.40;99.90;;;;;;5114142;28;20177;-48
2023/03/12 01:16:14;;;;;;;6.33;4.93;;;1.40;99.90;;;;;;5095966;28;20704;-49
2023/03/12 01:18:39;;;;;;;11.80;4.83;;;1.40;99.90;;;;;;5114197;28;20181;-46
2023/03/12 01:21:05;;;;;;;6.77;4.43;;;1.40;99.90;;;;;;5114464;28;20222;-47
2023/03/12 01:23:31;;;;;;;6.97;4.37;;;1.40;99.90;;;;;;5114719;28;20652;-46
2023/03/12 01:25:58;;;;;;;11.73;4.80;;;1.40;99.90;;;;;;5113871;28;20681;-48
2023/03/12 01:28:24;;;;;;;9.00;4.60;;;1.40;99.90;;;;;;5114023;28;20179;-47
2023/03/12 01:30:50;;;;;;;10.33;4.97;;;1.40;99.90;;;;;;5114095;28;20201;-47
2023/03/12 01:33:17;;;;;;;9.53;4.00;;;1.40;99.90;;;;;;5114016;28;20507;-47
2023/03/12 01:35:43;;;;;;;7.40;3.77;;;1.40;99.90;;;;;;5114114;28;20182;-46
2023/03/12 01:38:14;;;;;;;8.63;4.37;;;1.40;99.90;;;;;;5113817;28;20184;-51
2023/03/12 01:40:42;;;;;;;5.10;3.80;;;1.40;99.90;;;;;;5113831;28;20217;-51
2023/03/12 01:43:28;;;;;;;8.07;4.20;;;1.50;99.90;;;;;;5113731;28;20166;-49
2023/03/12 01:46:08;;;;;;;9.63;4.10;;;1.50;99.90;;;;;;5113787;28;20210;-50
2023/03/12 01:48:44;;;;;;;6.10;3.60;;;1.50;99.90;;;;;;5113921;28;20238;-49
2023/03/12 01:51:12;;;;;;;8.30;3.63;;;1.50;99.90;;;;;;5113983;28;20198;-48
2023/03/12 01:53:40;;;;;;;7.43;3.50;;;1.50;99.90;;;;;;5113843;28;20197;-50
2023/03/12 01:56:07;;;;;;;7.23;3.57;;;1.50;99.90;;;;;;5113773;28;20665;-49
2023/03/12 01:58:36;;;;;;;10.93;4.07;;;1.50;99.90;;;;;;5113472;28;20564;-49
2023/03/12 02:01:01;;;;;;;6.13;3.67;;;1.50;99.90;;;;;;5113661;28;20592;-50
2023/03/12 02:03:29;;;;;;;7.07;3.17;;;1.50;99.90;;;;;;5113946;28;20162;-51
2023/03/12 02:06:01;;;;;;;15.07;4.00;;;1.50;99.90;;;;;;5113527;28;20185;-50
2023/03/12 02:08:27;;;;;;;7.83;3.67;;;1.50;99.90;;;;;;5114301;28;20215;-50
2023/03/12 02:10:52;;;;;;;6.70;3.50;;;1.50;99.90;;;;;;5113457;28;20194;-49
2023/03/12 02:13:18;;;;;;;11.27;4.17;;;1.50;99.90;;;;;;5113548;28;20197;-51
2023/03/12 02:15:44;;;;;;;8.27;3.20;;;1.60;99.90;;;;;;5113645;28;20197;-50
2023/03/12 02:18:15;;;;;;;10.13;3.90;;;1.60;99.90;;;;;;5114315;28;20261;-50
2023/03/12 02:21:02;;;;;;;4.97;3.63;;;1.60;99.90;;;;;;5113790;28;20221;-50
2023/03/12 02:23:32;;;;;;;8.30;3.70;;;1.60;99.90;;;;;;5115264;28;20170;-48
2023/03/12 02:26:00;;;;;;;7.57;4.00;;;1.60;99.90;;;;;;5113624;28;20196;-47
2023/03/12 02:28:28;;;;;;;7.93;3.73;;;1.60;99.90;;;;;;5113390;28;20518;-47
2023/03/12 02:30:59;;;;;;;6.57;3.80;;;1.70;99.90;;;;;;5113242;28;20211;-45
2023/03/12 02:33:25;;;;;;;4.87;3.40;;;1.60;99.90;;;;;;5113377;28;20246;-47
2023/03/12 02:35:52;;;;;;;7.33;4.13;;;1.60;99.90;;;;;;5113480;28;20239;-47
2023/03/12 02:38:48;;;;;;;11.37;3.93;;;1.60;99.90;;;;;;5113202;28;20226;-45
2023/03/12 02:41:19;;;;;;;6.10;3.30;;;1.60;99.90;;;;;;5114221;28;20205;-45
2023/03/12 02:43:50;;;;;;;7.53;3.80;;;1.60;99.90;;;;;;5117141;28;20178;-47
2023/03/12 02:46:16;;;;;;;8.07;3.97;;;1.60;99.90;;;;;;5117067;28;20579;-49
2023/03/12 02:48:42;;;;;;;8.33;4.10;;;1.60;99.90;;;;;;5117224;28;20182;-49
2023/03/12 02:51:08;;;;;;;7.63;3.70;;;1.70;99.90;;;;;;5117129;28;20194;-50
2023/03/12 02:53:33;;;;;;;15.17;4.23;;;1.60;99.90;;;;;;5117440;28;20532;-48
2023/03/12 02:55:59;;;;;;;8.93;3.53;;;1.70;99.90;;;;;;5117702;28;20178;-46
2023/03/12 02:58:24;;;;;;;8.30;3.80;;;1.70;99.90;;;;;;5118644;28;20182;-47
2023/03/12 03:00:50;;;;;;;7.47;3.70;;;1.70;99.90;;;;;;5116880;28;20225;-48
2023/03/12 03:03:16;;;;;;;5.37;3.40;;;1.70;99.90;;;;;;5098690;28;20236;-48
2023/03/12 03:05:41;;;;;;;5.57;3.50;;;1.70;99.90;;;;;;5116527;28;20182;-49
2023/03/12 03:08:07;;;;;;;4.83;3.70;;;1.70;99.90;;;;;;5098216;28;20174;-49
2023/03/12 03:10:33;;;;;;;6.57;3.37;;;1.70;99.90;;;;;;5116288;28;20684;-49
2023/03/12 03:12:59;;;;;;;4.80;3.53;;;1.70;99.90;;;;;;5098159;28;20209;-47
2023/03/12 03:15:24;;;;;;;7.33;3.10;;;1.70;99.90;;;;;;5116955;28;20178;-48
2023/03/12 03:17:50;;;;;;;9.20;3.57;;;1.70;99.90;;;;;;5098366;28;20230;-46
2023/03/12 03:20:16;;;;;;;8.67;3.93;;;1.70;99.90;;;;;;5116459;28;20232;-48
2023/03/12 03:22:41;;;;;;;10.90;3.67;;;1.70;99.90;;;;;;5117477;28;20205;-46
2023/03/12 03:25:09;;;;;;;13.87;3.97;;;1.70;99.90;;;;;;5116181;28;20640;-47
2023/03/12 03:27:34;;;;;;;11.10;4.00;;;1.80;99.90;;;;;;5116263;28;20186;-47
2023/03/12 03:30:01;;;;;;;7.10;3.90;;;1.80;99.90;;;;;;5116136;28;20300;-47
2023/03/12 03:32:27;;;;;;;6.80;3.50;;;1.80;99.90;;;;;;5116356;28;20613;-47
2023/03/12 03:34:52;;;;;;;7.70;3.50;;;1.80;99.90;;;;;;5115921;28;20224;-49
2023/03/12 03:37:18;;;;;;;7.70;3.07;;;1.80;99.90;;;;;;5115955;28;20186;-47
2023/03/12 03:39:43;;;;;;;12.03;3.37;;;1.80;99.90;;;;;;5097369;28;20206;-47
2023/03/12 03:42:09;;;;;;;6.37;3.50;;;1.80;99.90;;;;;;5117823;22;20227;-51
2023/03/12 03:44:34;;;;;;;2.50;2.30;;;1.80;99.90;;;;;;5075178;28;20175;-52
2023/03/12 03:47:01;;;;;;;10.50;3.63;;;1.90;99.90;;;;;;5074957;28;20182;-51
2023/03/12 03:49:26;;;;;;;12.37;3.97;;;1.90;99.90;;;;;;5075033;28;20720;-53
2023/03/12 03:51:52;;;;;;;12.63;3.13;;;1.90;99.90;;;;;;5074814;28;20195;-51
2023/03/12 03:54:18;;;;;;;9.87;3.50;;;2.00;99.90;;;;;;5074863;28;20186;-52
2023/03/12 03:56:44;;;;;;;6.50;3.50;;;2.00;99.90;;;;;;5074855;28;20186;-51
2023/03/12 03:59:09;;;;;;;6.77;3.00;;;2.00;99.90;;;;;;5074714;28;20211;-51
2023/03/12 04:01:35;;;;;;;8.27;3.10;;;2.00;99.90;;;;;;5074638;28;20200;-50
2023/03/12 04:04:02;;;;;;;5.77;3.10;;;2.10;99.90;;;;;;5074945;28;20175;-53
2023/03/12 04:06:28;;;;;;;6.77;3.37;;;2.10;99.90;;;;;;5074609;28;20168;-52
2023/03/12 04:08:55;;;;;;;9.87;3.17;;;2.10;99.90;;;;;;5074844;28;20187;-50
2023/03/12 04:11:21;;;;;;;8.60;3.40;;;2.10;99.90;;;;;;5074604;28;20234;-52
2023/03/12 04:13:48;;;;;;;3.00;2.30;;;2.10;99.90;;;;;;5074541;28;20281;-51
2023/03/12 04:16:14;;;;;;;12.77;3.87;;;2.10;99.90;;;;;;5074497;28;20180;-51
2023/03/12 04:18:40;;;;;;;5.40;2.60;;;2.10;99.90;;;;;;5056415;28;20179;-51
2023/03/12 04:21:07;;;;;;;6.87;2.50;;;2.10;99.90;;;;;;5074613;28;20210;-52
2023/03/12 04:23:33;;;;;;;5.00;2.90;;;2.10;99.90;;;;;;5074300;28;20701;-52
2023/03/12 04:25:59;;;;;;;7.67;3.23;;;2.10;99.90;;;;;;5074292;28;20207;-51
2023/03/12 04:28:24;;;;;;;8.03;3.17;;;2.10;99.90;;;;;;5074242;28;20182;-51
2023/03/12 04:31:00;;;;;;;6.77;3.00;;;2.10;99.90;;;;;;5056281;28;20199;-46
2023/03/12 04:33:31;;;;;;;6.73;3.50;;;2.10;99.90;;;;;;5074574;28;20636;-46
2023/03/12 04:35:58;;;;;;;7.63;3.40;;;2.20;99.90;;;;;;5074184;28;20176;-48
2023/03/12 04:38:24;;;;;;;7.23;2.77;;;2.20;99.90;;;;;;5074062;28;20186;-47
2023/03/12 04:40:58;;;;;;;4.70;2.70;;;2.20;99.90;;;;;;5073701;28;20246;-47
2023/03/12 04:43:24;;;;;;;8.60;2.70;;;2.20;99.90;;;;;;5074269;28;20568;-47
2023/03/12 04:45:50;;;;;;;4.23;2.47;;;2.20;99.90;;;;;;5073826;28;20186;-47
2023/03/12 04:48:15;;;;;;;5.33;2.60;;;2.20;99.90;;;;;;5074022;28;20210;-47
2023/03/12 04:50:41;;;;;;;4.37;2.47;;;2.20;99.90;;;;;;5073990;28;20196;-48
2023/03/12 04:53:07;;;;;;;6.63;2.70;;;2.20;99.90;;;;;;5074081;28;20567;-47
2023/03/12 04:55:32;;;;;;;5.93;2.80;;;2.20;99.90;;;;;;5074194;28;20186;-48
2023/03/12 04:57:58;;;;;;;4.13;2.43;;;2.20;99.90;;;;;;5073743;28;20184;-48
2023/03/12 05:00:23;;;;;;;7.10;2.87;;;2.20;99.90;;;;;;5074117;28;20265;-47
2023/03/12 05:02:49;;;;;;;4.83;2.37;;;2.20;99.90;;;;;;5073808;28;20172;-47
2023/03/12 05:05:14;;;;;;;4.47;2.77;;;2.20;99.90;;;;;;5055418;28;20791;-46
2023/03/12 05:07:40;;;;;;;6.67;2.70;;;2.20;99.90;;;;;;5073832;28;20670;-48
2023/03/12 05:10:06;;;;;;;4.50;2.50;;;2.20;99.90;;;;;;5073724;28;20710;-50
2023/03/12 05:12:31;;;;;;;7.53;2.87;;;2.20;99.90;;;;;;5073723;28;20174;-50
2023/03/12 05:14:57;;;;;;;3.10;1.70;;;2.20;99.90;;;;;;5073870;28;20186;-50
2023/03/12 05:17:23;;;;;;;3.37;2.37;;;2.30;99.90;;;;;;5073631;28;20567;-50
2023/03/12 05:19:48;;;;;;;7.67;2.23;;;2.30;99.90;;;;;;5073916;28;20195;-50
2023/03/12 05:22:14;;;;;;;7.43;2.63;;;2.30;99.90;;;;;;5073750;28;20670;-49
2023/03/12 05:24:39;;;;;;;4.43;1.67;;;2.30;99.90;;;;;;5073633;28;20176;-49
2023/03/12 05:27:07;;;;;;;4.17;2.33;;;2.30;99.90;;;;;;5073776;28;20587;-49
2023/03/12 05:29:34;;;;;;;1.37;1.07;;;2.30;99.90;;;;;;5073643;28;20183;-50
2023/03/12 05:32:00;;;;;;;7.43;2.53;;;2.30;99.90;;;;;;5073505;28;20207;-51
2023/03/12 05:34:29;;;;;;;7.50;2.13;;;2.30;99.90;;;;;;5073292;28;20180;-50
2023/03/12 05:36:55;;;;;;;9.03;2.70;;;2.30;99.90;;;;;;5055338;28;20267;-50
2023/03/12 05:39:20;;;;;;;8.63;2.80;;;2.30;99.90;;;;;;5073232;28;20199;-50
2023/03/12 05:41:46;;;;;;;7.00;2.60;;;2.30;99.90;;;;;;5073194;28;20194;-50
2023/03/12 05:44:14;;;;;;;8.17;2.20;;;2.30;99.90;;;;;;5073575;28;20164;-51
2023/03/12 05:46:41;;;;;;;7.90;2.50;;;2.30;99.90;;;;;;5073280;28;20175;-49
2023/03/12 05:49:06;;;;;;;4.30;1.93;;;2.30;99.90;;;;;;5073412;28;20176;-50
2023/03/12 05:51:32;;;;;;;5.40;2.17;;;2.30;99.90;;;;;;5073367;28;20198;-51
2023/03/12 05:53:58;;;;;;;3.93;2.30;;;2.30;99.90;;;;;;5074218;28;20191;-46
2023/03/12 05:56:24;;;;;;;1.67;1.50;;;2.30;99.90;;;;;;5073250;28;20205;-48
2023/03/12 05:58:49;;;;;;;2.50;1.80;;;2.40;99.90;;;;;;5073014;28;20646;-46
2023/03/12 06:01:21;;;;;;;5.10;2.57;;;2.40;99.90;;;;;;5073332;28;20183;-47
2023/03/12 06:03:47;;;;;;;6.67;2.60;;;2.40;99.90;;;;;;5073237;28;20164;-47
2023/03/12 06:06:13;;;;;;;4.73;2.57;;;2.40;99.90;;;;;;5073529;28;20164;-47
2023/03/12 06:08:40;;;;;;;8.17;2.40;;;2.40;99.90;;;;;;5072984;28;20214;-47
2023/03/12 06:11:06;;;;;;;8.80;2.33;;;2.40;99.90;;;;;;5072965;28;20192;-48
2023/03/12 06:13:31;;;;;;;3.93;2.00;;;2.40;99.90;;;;;;5072951;28;20183;-47
2023/03/12 06:16:07;;;;;;;5.47;2.23;;;2.40;99.90;;;;;;5073553;28;20228;-48
2023/03/12 06:18:34;;;;;;;5.73;2.37;;;2.40;99.90;;;;;;5077356;28;20509;-47
2023/03/12 06:21:21;;;;;;;5.73;2.67;;;2.40;99.90;;;;;;5076492;28;20269;-47
2023/03/12 06:23:47;;;;;;;7.60;2.07;;;2.50;99.90;;;;;;5076877;28;20594;-46
2023/03/12 06:26:14;;;;;;;5.30;2.50;;;2.50;99.90;;;;;;5076744;28;20636;-46
2023/03/12 06:28:40;;;;;;;4.87;2.40;;;2.50;99.90;;;;;;5076791;28;20176;-46
2023/03/12 06:31:06;;;;;;;11.53;2.57;;;2.50;99.90;;;;;;5076645;28;20242;-46
2023/03/12 06:33:32;;;;;;;3.17;2.13;;;2.50;99.90;;;;;;5076436;28;20168;-46
2023/03/12 06:36:00;;;;;;;1.50;1.00;;;2.50;99.90;;;;;;5076355;28;20186;-47
2023/03/12 06:38:26;;;;;;;5.63;2.63;;;2.60;99.90;;;;;;5076266;28;20176;-46
2023/03/12 06:40:56;;;;;;;6.50;2.67;;;2.60;99.90;;;;;;5076024;28;20214;-47
2023/03/12 06:43:22;;;;;;;4.27;2.40;;;2.60;99.90;;;;;;5076201;28;20195;-46
2023/03/12 06:45:48;;;;;;;5.97;2.93;;;2.60;99.90;;;;;;5076164;28;20180;-48
2023/03/12 06:48:14;;;;;;;7.47;2.47;;;2.60;99.90;;;;;;5076125;28;20179;-46
2023/03/12 06:50:39;;;;;;;4.07;2.30;;;2.60;99.90;;;;;;5076493;28;20712;-46
2023/03/12 06:53:05;;;;;;;3.83;2.47;;;2.70;99.90;;;;;;5075997;28;20651;-46
2023/03/12 06:55:30;;;;;;;5.00;2.37;;;2.70;99.90;;;;;;5076269;28;20207;-46
2023/03/12 06:57:56;;;;;;;6.93;2.50;;;2.70;99.90;;;;;;5076362;28;20237;-46
2023/03/12 07:00:21;;;;;;;7.10;2.77;;;2.70;99.90;;;;;;5076082;28;20682;-47
2023/03/12 07:02:47;;;;;;;8.20;3.10;;;2.80;99.90;;;;;;5076325;28;20711;-47
2023/03/12 07:05:12;;;;;;;7.80;3.47;;;2.80;99.90;;;;;;5076007;28;20175;-46
2023/03/12 07:07:38;;;;;;;10.07;3.10;;;2.80;99.90;;;;;;5076213;28;20176;-45
2023/03/12 07:10:05;;;;;;;6.90;2.50;;;2.80;99.90;;;;;;5076137;28;20231;-45
2023/03/12 07:12:32;;;;;;;5.10;2.77;;;2.90;99.90;;;;;;5075914;28;20698;-46
2023/03/12 07:14:57;;;;;;;4.70;2.60;;;2.90;99.90;;;;;;5076066;28;20184;-46
2023/03/12 07:17:24;;;;;;;9.77;3.03;;;2.90;99.90;;;;;;5076259;28;20183;-45
2023/03/12 07:19:50;;;;;;;4.50;2.63;;;2.90;99.90;;;;;;5075444;28;20283;-46
2023/03/12 07:22:16;;;;;;;6.03;3.23;;;3.00;99.90;;;;;;5075758;28;20309;-47
2023/03/12 07:24:41;;;;;;;5.20;2.90;;;3.00;99.90;;;;;;5075511;28;20183;-44
2023/03/12 07:27:07;;;;;;;3.70;3.00;;;3.00;99.90;;;;;;5075386;28;20556;-46
2023/03/12 07:29:32;;;;;;;5.93;2.97;;;3.10;99.90;;;;;;5075699;28;20183;-46
2023/03/12 07:31:58;;;;;;;5.43;2.63;;;3.10;99.90;;;;;;5075635;28;20223;-44
2023/03/12 07:34:23;;;;;;;5.17;3.00;;;3.20;99.90;;;;;;5075950;28;20180;-45
2023/03/12 07:36:49;;;;;;;6.80;3.10;;;3.20;99.90;;;;;;5075278;28;20199;-47
2023/03/12 07:39:15;;;;;;;7.33;3.23;;;3.30;99.90;;;;;;5075276;28;20206;-44
2023/03/12 07:41:40;;;;;;;7.60;3.47;;;3.40;99.90;;;;;;5075419;28;20200;-45
2023/03/12 07:44:06;;;;;;;6.43;3.03;;;3.40;99.90;;;;;;5075215;28;20172;-45
2023/03/12 07:46:32;;;;;;;9.70;3.50;;;3.50;99.90;;;;;;5075285;28;20260;-44
2023/03/12 07:48:58;;;;;;;6.60;3.37;;;3.60;99.90;;;;;;5075562;28;20595;-45
2023/03/12 07:51:23;;;;;;;5.80;3.70;;;3.60;99.90;;;;;;5076070;28;20191;-45
2023/03/12 07:53:49;;;;;;;8.53;4.23;;;3.70;99.90;;;;;;5075163;28;20175;-45
2023/03/12 07:56:14;;;;;;;6.40;3.43;;;3.70;99.90;;;;;;5075435;28;20251;-45
2023/03/12 07:58:40;;;;;;;8.00;4.00;;;3.70;99.90;;;;;;5074814;28;20179;-44
2023/03/12 08:01:06;;;;;;;6.20;3.73;;;3.80;99.90;;;;;;5074819;28;20721;-44
2023/03/12 08:03:32;;;;;;;5.53;3.63;;;3.80;99.90;;;;;;5074642;28;20172;-44
2023/03/12 08:06:00;;;;;;;7.97;3.97;;;3.90;99.90;;;;;;5074666;28;20183;-45
2023/03/12 08:08:26;;;;;;;8.33;4.60;;;3.90;99.90;;;;;;5075222;28;20164;-43
2023/03/12 08:10:53;;;;;;;5.73;3.90;;;4.00;99.90;;;;;;5074518;28;20203;-46
2023/03/12 08:13:19;;;;;;;6.90;3.87;;;4.10;99.90;;;;;;5074546;28;20511;-44
2023/03/12 08:15:44;;;;;;;6.67;4.37;;;4.10;99.90;;;;;;5056692;28;20234;-44
2023/03/12 08:18:10;;;;;;;5.77;4.53;;;4.20;99.90;;;;;;5074371;28;20604;-44
2023/03/12 08:20:35;;;;;;;6.60;4.33;;;4.20;99.90;;;;;;5074475;28;20215;-43
2023/03/12 08:23:01;;;;;;;6.80;4.67;;;4.30;99.90;;;;;;5074584;28;20175;-47
2023/03/12 08:25:27;;;;;;;6.50;4.20;;;4.40;99.90;;;;;;5074463;28;20564;-45
2023/03/12 08:27:53;;;;;;;5.67;4.03;;;4.40;99.90;;;;;;5074427;28;20259;-46
2023/03/12 08:30:18;;;;;;;4.87;3.80;;;4.50;99.90;;;;;;5056166;28;20656;-45
2023/03/12 08:32:44;;;;;;;6.23;4.10;;;4.60;99.90;;;;;;5074681;28;20647;-45
2023/03/12 08:35:09;;;;;;;6.90;4.43;;;4.60;99.90;;;;;;5074112;28;20187;-45
2023/03/12 08:37:35;;;;;;;7.20;4.30;;;4.70;99.90;;;;;;5074540;28;20180;-44
2023/03/12 08:40:03;;;;;;;8.80;4.37;;;4.70;99.90;;;;;;5073098;28;20207;-43
2023/03/12 08:42:29;;;;;;;9.40;5.00;;;4.80;99.90;;;;;;5073793;28;20183;-47
2023/03/12 08:44:54;;;;;;;8.57;4.50;;;4.90;99.90;;;;;;5073867;28;20195;-43
2023/03/12 08:47:20;;;;;;;4.93;4.00;;;4.90;99.90;;;;;;5055928;28;20179;-44
2023/03/12 08:49:45;;;;;;;5.03;3.93;;;5.00;99.90;;;;;;5073750;28;20341;-47
2023/03/12 08:52:11;;;;;;;5.87;4.00;;;5.10;99.90;;;;;;5073847;28;20184;-45
2023/03/12 08:54:37;;;;;;;4.17;3.10;;;5.20;99.90;;;;;;5073757;28;20191;-44
2023/03/12 08:57:02;;;;;;;5.40;3.43;;;5.30;99.90;;;;;;5073985;28;20181;-45
2023/03/12 08:59:28;;;;;;;7.80;3.90;;;5.30;99.90;;;;;;5073624;28;20260;-45
2023/03/12 09:01:53;;;;;;;4.87;3.67;;;5.40;99.90;;;;;;5073556;28;20203;-44
2023/03/12 09:04:19;;;;;;;5.67;3.00;;;5.50;99.90;;;;;;5073867;28;20190;-44
2023/03/12 09:06:44;;;;;;;4.00;3.10;;;5.50;99.90;;;;;;5073597;28;20544;-44
2023/03/12 09:09:10;;;;;;;4.13;3.03;;;5.70;99.90;;;;;;5073448;28;20218;-47
2023/03/12 09:11:38;;;;;;;4.20;3.53;;;5.70;99.90;;;;;;5073586;28;20202;-44
2023/03/12 09:14:04;;;;;;;7.30;3.10;;;5.90;99.90;;;;;;5073455;28;20187;-45
2023/03/12 09:16:30;;;;;;;3.07;2.63;;;5.90;99.90;;;;;;5073687;28;20186;-45
2023/03/12 09:18:55;;;;;;;4.17;2.93;;;6.00;99.90;;;;;;5073646;28;20180;-47
2023/03/12 09:21:21;;;;;;;5.57;2.93;;;6.10;99.90;;;;;;5073475;28;20585;-46
2023/03/12 09:23:47;;;;;;;4.23;2.67;;;6.10;99.90;;;;;;5074212;28;20194;-46
2023/03/12 09:26:13;;;;;;;3.47;2.53;;;6.20;99.90;;;;;;5073447;28;20635;-48
2023/03/12 09:28:38;;;;;;;4.90;3.10;;;6.30;99.90;;;;;;5073311;28;20180;-46
2023/03/12 09:31:04;;;;;;;5.50;3.10;;;6.30;99.90;;;;;;5073494;28;20254;-46
2023/03/12 09:33:31;;;;;;;1.93;1.63;;;6.40;99.90;;;;;;5073553;28;20184;-47
2023/03/12 09:35:57;;;;;;;4.97;3.33;;;6.40;99.90;;;;;;5073427;28;20193;-46
2023/03/12 09:38:24;;;;;;;3.67;2.83;;;6.50;99.90;;;;;;5073235;28;20180;-47
2023/03/12 09:40:50;;;;;;;5.37;2.70;;;6.60;99.90;;;;;;5073337;28;20229;-47
2023/03/12 09:43:29;;;;;;;6.57;2.37;;;6.70;99.90;;;;;;5106390;22;20238;-47
2023/03/12 09:45:55;;;;;;;3.57;2.83;;;6.70;99.90;;;;;;5114330;28;20154;-50
2023/03/12 09:48:33;;;;;;;6.70;3.20;;;6.80;99.90;;;;;;5113927;28;20586;-47
2023/03/12 09:51:05;;;;;;;3.40;2.63;;;6.90;99.90;;;;;;5116165;28;20200;-47
2023/03/12 09:53:45;;;;;;;3.00;2.17;;;7.00;99.90;;;;;;5118372;28;20170;-45
2023/03/12 09:56:16;;;;;;;4.53;3.07;;;7.10;99.90;;;;;;5117979;28;20245;-48
2023/03/12 09:58:43;;;;;;;6.20;2.30;;;7.20;99.90;;;;;;5118183;28;20187;-48
2023/03/12 10:01:36;;;;;;;8.13;3.80;;;7.20;99.90;;;;;;5117629;28;20775;-49
2023/03/12 10:04:14;;;;;;;3.80;2.60;;;7.30;99.90;;;;;;5118328;28;20172;-47
2023/03/12 10:06:58;;;;;;;3.13;1.73;;;7.40;99.90;;;;;;5118275;28;20169;-49
2023/03/12 10:09:34;;;;;;;5.67;3.60;;;7.50;99.90;;;;;;5117722;28;20182;-49
2023/03/12 10:12:31;;;;;;;6.57;3.33;;;7.50;99.90;;;;;;5117832;28;20560;-48
2023/03/12 10:15:21;;;;;;;8.90;4.00;;;7.60;99.90;;;;;;5117529;28;20252;-49
2023/03/12 10:18:12;;;;;;;7.80;3.63;;;7.70;99.90;;;;;;5117672;28;20181;-48
2023/03/12 10:21:08;;;;;;;13.57;5.30;;;7.70;99.90;;;;;;5117557;28;20218;-48
2023/03/12 10:23:33;;;;;;;7.80;4.60;;;7.80;99.90;;;;;;5118815;28;20241;-49
2023/03/12 10:26:07;;;;;;;9.57;4.13;;;7.90;99.90;;;;;;5117222;28;20260;-48
2023/03/12 10:28:54;;;;;;;8.83;3.83;;;7.90;99.90;;;;;;5099042;28;20170;-49
2023/03/12 10:31:35;;;;;;;11.33;5.07;;;8.00;99.90;;;;;;5117271;28;20287;-49
2023/03/12 10:34:08;;;;;;;12.77;4.77;;;8.00;99.90;;;;;;5117270;28;20168;-49
2023/03/12 10:36:38;;;;;;;9.00;3.67;;;8.10;99.90;;;;;;5117361;28;20189;-48
2023/03/12 10:39:12;;;;;;;11.10;4.93;;;8.10;99.90;;;;;;5117257;28;20527;-48
2023/03/12 10:41:40;;;;;;;11.97;5.77;;;8.20;99.90;;;;;;5116990;28;20283;-49
2023/03/12 10:44:08;;;;;;;13.97;6.73;;;8.20;99.90;;;;;;5116822;28;20582;-50
2023/03/12 10:56:50;;;;;;;13.93;5.67;;;8.50;99.90;;;;;;5116421;28;20178;-49
2023/03/12 10:59:21;;;;;;;17.23;6.10;;;8.50;99.90;;;;;;5116562;28;20685;-49
2023/03/12 11:01:50;;;;;;;12.53;5.47;;;8.60;99.90;;;;;;5115607;28;20211;-48
2023/03/12 11:04:20;;;;;;;23.13;6.80;;;8.60;99.90;;;;;;5116927;28;20226;-50
2023/03/12 11:07:02;;;;;;;25.83;7.60;;;8.60;99.90;;;;;;5116889;28;20222;-48
2023/03/12 11:09:27;;;;;;;20.03;5.87;;;8.70;99.90;;;;;;5116523;28;20186;-47
2023/03/12 11:11:53;;;;;;;24.73;7.00;;;8.70;99.90;;;;;;5116262;28;20195;-50
2023/03/12 11:14:22;;;;;;;26.30;6.03;;;8.80;99.90;;;;;;5116620;28;20263;-49
2023/03/12 11:16:49;;;;;;;27.70;7.47;;;8.80;99.90;;;;;;5097842;28;20217;-47
2023/03/12 11:19:30;;;;;;;17.80;6.17;;;8.80;99.90;;;;;;5116293;28;20285;-49
2023/03/12 11:21:59;;;;;;;21.37;6.20;;;8.90;99.90;;;;;;5116684;28;20206;-48
2023/03/12 11:24:24;;;;;;;17.17;6.60;;;9.00;99.90;;;;;;5115527;28;20643;-48
2023/03/12 11:27:29;;;;;;;31.27;7.03;;;9.00;99.90;;;;;;5115588;28;20258;-49
2023/03/12 11:29:54;;;;;;;24.63;7.27;;;9.10;99.90;;;;;;5116403;28;20166;-47
2023/03/12 11:32:32;;;;;;;27.57;8.00;;;9.10;99.90;;;;;;5115947;28;20180;-49
2023/03/12 11:34:58;;;;;;;27.20;7.60;;;9.20;99.90;;;;;;5097142;28;20227;-48
2023/03/12 11:38:00;;;;;;;24.07;7.10;;;9.30;99.90;;;;;;5116296;28;20183;-48
2023/03/12 11:41:00;;;;;;;25.73;7.20;;;9.40;99.90;;;;;;5116116;28;20303;-49
2023/03/12 11:43:43;;;;;;;27.20;8.73;;;9.60;99.90;;;;;;5116487;28;20619;-49
2023/03/12 11:46:23;;;;;;;31.93;7.83;;;9.80;99.90;;;;;;5115052;28;20172;-49
2023/03/12 11:49:04;;;;;;;23.77;7.17;;;10.00;99.90;;;;;;5116076;28;20193;-49
2023/03/12 11:51:50;;;;;;;15.67;5.00;;;10.20;99.90;;;;;;5115849;28;20290;-49
2023/03/12 11:54:47;;;;;;;21.67;6.53;;;10.50;99.90;;;;;;5115869;28;20170;-48
2023/03/12 11:57:12;;;;;;;23.20;6.87;;;10.80;99.90;;;;;;5114640;28;20773;-49
2023/03/12 11:59:44;;;;;;;26.87;6.60;;;11.00;99.90;;;;;;5116139;28;20201;-50
2023/03/12 12:02:21;;;;;;;29.63;6.60;;;11.20;99.90;;;;;;5116382;28;20152;-48
2023/03/12 12:05:08;;;;;;;24.23;5.73;;;11.30;99.90;;;;;;5116001;28;20158;-48
2023/03/12 12:08:01;;;;;;;20.63;5.97;;;11.20;99.90;;;;;;5115487;28;20167;-48
2023/03/12 12:10:38;;;;;;;27.50;6.23;;;11.10;99.90;;;;;;5115450;28;20199;-51
2023/03/12 12:13:25;;;;;;;19.53;5.53;;;11.10;99.90;;;;;;5115330;28;20180;-50
2023/03/12 12:16:16;;;;;;;26.23;5.80;;;11.10;99.90;;;;;;5115289;28;20154;-49
2023/03/12 12:18:54;;;;;;;25.73;5.80;;;11.10;99.90;;;;;;5115426;28;20170;-50
2023/03/12 12:21:38;;;;;;;22.03;5.37;;;11.20;99.90;;;;;;5114322;28;20225;-49
2023/03/12 12:24:12;;;;;;;17.63;4.23;;;11.30;99.90;;;;;;5116341;28;20150;-49
2023/03/12 12:27:01;;;;;;;19.27;4.67;;;11.30;99.90;;;;;;5114820;28;20611;-49
2023/03/12 12:29:57;;;;;;;18.87;4.63;;;11.20;99.90;;;;;;5101767;28;20660;-47
2023/03/12 12:32:42;;;;;;;19.23;4.67;;;11.20;99.90;;;;;;5115110;28;20222;-47
2023/03/12 12:35:35;;;;;;;24.43;5.27;;;11.20;99.90;;;;;;5091705;27;20886;-48
2023/03/12 12:38:13;;;;;;;19.07;4.53;;;11.10;99.90;;;;;;5072215;28;20211;-49
2023/03/12 12:40:47;;;;;;;24.67;5.13;;;11.20;99.90;;;;;;5089433;28;20202;-47
2023/03/12 12:43:34;;;;;;;24.93;5.43;;;11.20;99.90;;;;;;5070546;28;20183;-48
2023/03/12 12:46:06;;;;;;;24.50;4.83;;;11.20;99.90;;;;;;5070706;28;20164;-49
2023/03/12 12:48:46;;;;;;;19.10;3.90;;;11.20;99.90;;;;;;5085394;28;20253;-48
2023/03/12 12:51:13;;;;;;;17.53;3.40;;;11.30;99.90;;;;;;5087750;28;20203;-48
2023/03/12 12:54:09;;;;;;;13.33;3.53;;;11.40;99.90;;;;;;5090609;28;20205;-50
2023/03/12 12:56:49;;;;;;;21.53;4.60;;;11.50;99.90;;;;;;5090423;28;20554;-47
2023/03/12 12:59:26;;;;;;;16.63;3.73;;;11.60;99.90;;;;;;5090736;28;20246;-47
2023/03/12 13:01:55;;;;;;;24.33;4.00;;;11.70;99.90;;;;;;5089423;28;20202;-50
2023/03/12 13:04:27;;;;;;;37.83;6.07;;;11.70;99.90;;;;;;5091191;28;20622;-48
2023/03/12 13:07:10;;;;;;;20.60;3.87;;;11.80;99.90;;;;;;5090890;28;20196;-49
2023/03/12 13:09:45;;;;;;;18.47;4.30;;;11.90;99.90;;;;;;5090719;28;20214;-50
2023/03/12 13:12:31;;;;;;;12.67;3.37;;;11.90;99.90;;;;;;5090668;28;20178;-45
2023/03/12 13:14:58;;;;;;;21.83;5.37;;;12.00;99.90;;;;;;5090503;28;20217;-51